sensor_id;sensor_type;location;lat;lon;timestamp;temperature;humidity
44695;DHT22;32845;59.422;17.930;2023-09-08T00:01:08;15.50;99.90
44695;DHT22;32845;59.422;17.930;2023-09-08T00:05:39;15.50;99.90
44695;DHT22;32845;59.422;17.930;2023-09-08T00:10:10;15.40;99.90
44695;DHT22;32845;59.422;17.930;2023-09-08T00:14:41;15.40;99.90
44695;DHT22;32845;59.422;17.930;2023-09-08T00:19:12;15.30;99.90
44695;DHT22;32845;59.422;17.930;2023-09-08T00:23:43;15.20;99.90
44695;DHT22;32845;59.422;17.930;2023-09-08T00:28:13;15.20;99.90
44695;DHT22;32845;59.422;17.930;2023-09-08T00:32:44;15.20;99.90
44695;DHT22;32845;59.422;17.930;2023-09-08T00:37:14;15.10;99.90
44695;DHT22;32845;59.422;17.930;2023-09-08T00:41:45;15.10;99.90
44695;DHT22;32845;59.422;17.930;2023-09-08T00:46:16;15.10;99.90
44695;DHT22;32845;59.422;17.930;2023-09-08T00:50:47;15.10;99.90
44695;DHT22;32845;59.422;17.930;2023-09-08T00:55:19;15.00;99.90
44695;DHT22;32845;59.422;17.930;2023-09-08T00:59:49;15.00;99.90
44695;DHT22;32845;59.422;17.930;2023-09-08T01:04:20;15.00;99.90
44695;DHT22;32845;59.422;17.930;2023-09-08T01:08:52;15.00;99.90
44695;DHT22;32845;59.422;17.930;2023-09-08T01:13:22;15.00;99.90
44695;DHT22;32845;59.422;17.930;2023-09-08T01:17:53;15.00;99.90
44695;DHT22;32845;59.422;17.930;2023-09-08T01:27:04;14.90;99.90
44695;DHT22;32845;59.422;17.930;2023-09-08T01:31:37;14.90;99.90
44695;DHT22;32845;59.422;17.930;2023-09-08T01:36:08;14.90;99.90
44695;DHT22;32845;59.422;17.930;2023-09-08T01:40:39;14.90;99.90
44695;DHT22;32845;59.422;17.930;2023-09-08T01:45:09;14.90;99.90
44695;DHT22;32845;59.422;17.930;2023-09-08T01:49:40;14.90;99.90
44695;DHT22;32845;59.422;17.930;2023-09-08T01:54:10;14.90;99.90
44695;DHT22;32845;59.422;17.930;2023-09-08T01:58:41;14.90;99.90
44695;DHT22;32845;59.422;17.930;2023-09-08T02:03:12;14.90;99.90
44695;DHT22;32845;59.422;17.930;2023-09-08T02:07:42;14.90;99.90
44695;DHT22;32845;59.422;17.930;2023-09-08T02:12:13;15.00;99.90
44695;DHT22;32845;59.422;17.930;2023-09-08T02:16:44;15.10;99.90
44695;DHT22;32845;59.422;17.930;2023-09-08T02:21:15;15.10;99.90
44695;DHT22;32845;59.422;17.930;2023-09-08T02:25:45;15.10;99.90
44695;DHT22;32845;59.422;17.930;2023-09-08T02:30:16;15.10;99.90
44695;DHT22;32845;59.422;17.930;2023-09-08T02:34:47;15.20;99.90
44695;DHT22;32845;59.422;17.930;2023-09-08T02:39:19;15.20;99.90
44695;DHT22;32845;59.422;17.930;2023-09-08T02:43:49;15.20;99.90
44695;DHT22;32845;59.422;17.930;2023-09-08T02:48:20;15.20;99.90
44695;DHT22;32845;59.422;17.930;2023-09-08T02:52:50;15.20;99.90
44695;DHT22;32845;59.422;17.930;2023-09-08T02:57:21;15.10;99.90
44695;DHT22;32845;59.422;17.930;2023-09-08T03:01:52;15.10;99.90
44695;DHT22;32845;59.422;17.930;2023-09-08T03:06:22;15.00;99.90
44695;DHT22;32845;59.422;17.930;2023-09-08T03:10:55;15.00;99.90
44695;DHT22;32845;59.422;17.930;2023-09-08T03:15:27;14.90;99.90
44695;DHT22;32845;59.422;17.930;2023-09-08T03:19:58;15.00;99.90
44695;DHT22;32845;59.422;17.930;2023-09-08T03:24:29;14.90;99.90
44695;DHT22;32845;59.422;17.930;2023-09-08T03:28:59;14.90;99.90
44695;DHT22;32845;59.422;17.930;2023-09-08T03:33:30;14.90;99.90
44695;DHT22;32845;59.422;17.930;2023-09-08T03:38:01;14.90;99.90
44695;DHT22;32845;59.422;17.930;2023-09-08T03:42:31;14.90;99.90
44695;DHT22;32845;59.422;17.930;2023-09-08T03:47:02;14.90;99.90
44695;DHT22;32845;59.422;17.930;2023-09-08T03:51:33;14.80;99.90
44695;DHT22;32845;59.422;17.930;2023-09-08T03:56:03;14.80;99.90
44695;DHT22;32845;59.422;17.930;2023-09-08T04:00:35;14.80;99.90
44695;DHT22;32845;59.422;17.930;2023-09-08T04:05:06;14.80;99.90
44695;DHT22;32845;59.422;17.930;2023-09-08T04:09:36;14.80;99.90
44695;DHT22;32845;59.422;17.930;2023-09-08T04:14:07;14.90;99.90
44695;DHT22;32845;59.422;17.930;2023-09-08T04:18:37;14.80;99.90
44695;DHT22;32845;59.422;17.930;2023-09-08T04:23:08;14.80;99.90
44695;DHT22;32845;59.422;17.930;2023-09-08T04:27:39;14.80;99.90
44695;DHT22;32845;59.422;17.930;2023-09-08T04:32:10;14.90;99.90
44695;DHT22;32845;59.422;17.930;2023-09-08T04:36:40;14.90;99.90
44695;DHT22;32845;59.422;17.930;2023-09-08T04:41:11;15.00;99.90
44695;DHT22;32845;59.422;17.930;2023-09-08T04:45:42;15.10;99.90
44695;DHT22;32845;59.422;17.930;2023-09-08T04:50:12;15.10;99.90
44695;DHT22;32845;59.422;17.930;2023-09-08T04:54:43;15.20;99.90
44695;DHT22;32845;59.422;17.930;2023-09-08T04:59:13;15.20;99.90
44695;DHT22;32845;59.422;17.930;2023-09-08T05:03:44;15.30;99.90
44695;DHT22;32845;59.422;17.930;2023-09-08T05:08:15;15.30;99.90
44695;DHT22;32845;59.422;17.930;2023-09-08T05:12:46;15.40;99.90
44695;DHT22;32845;59.422;17.930;2023-09-08T05:17:16;15.50;99.90
44695;DHT22;32845;59.422;17.930;2023-09-08T05:21:47;15.60;99.90
44695;DHT22;32845;59.422;17.930;2023-09-08T05:26:17;15.60;99.90
44695;DHT22;32845;59.422;17.930;2023-09-08T05:30:51;15.70;99.90
44695;DHT22;32845;59.422;17.930;2023-09-08T05:35:21;15.80;99.90
44695;DHT22;32845;59.422;17.930;2023-09-08T05:39:52;15.80;99.90
44695;DHT22;32845;59.422;17.930;2023-09-08T05:44:22;15.90;99.90
44695;DHT22;32845;59.422;17.930;2023-09-08T05:48:55;16.00;99.90
44695;DHT22;32845;59.422;17.930;2023-09-08T05:53:26;16.00;99.90
44695;DHT22;32845;59.422;17.930;2023-09-08T05:57:56;16.10;99.90
44695;DHT22;32845;59.422;17.930;2023-09-08T06:02:27;16.10;99.90
44695;DHT22;32845;59.422;17.930;2023-09-08T06:06:57;16.20;99.90
44695;DHT22;32845;59.422;17.930;2023-09-08T06:11:28;16.30;99.90
44695;DHT22;32845;59.422;17.930;2023-09-08T06:15:58;16.30;99.90
44695;DHT22;32845;59.422;17.930;2023-09-08T06:20:29;16.40;99.90
44695;DHT22;32845;59.422;17.930;2023-09-08T06:24:59;16.40;99.90
44695;DHT22;32845;59.422;17.930;2023-09-08T06:29:30;16.50;99.90
44695;DHT22;32845;59.422;17.930;2023-09-08T06:34:00;16.50;99.90
44695;DHT22;32845;59.422;17.930;2023-09-08T06:38:31;16.50;99.90
44695;DHT22;32845;59.422;17.930;2023-09-08T06:43:02;16.60;99.90
44695;DHT22;32845;59.422;17.930;2023-09-08T06:47:32;16.60;99.90
44695;DHT22;32845;59.422;17.930;2023-09-08T06:52:03;16.70;99.90
44695;DHT22;32845;59.422;17.930;2023-09-08T06:56:35;16.70;99.90
44695;DHT22;32845;59.422;17.930;2023-09-08T07:01:06;16.80;99.90
44695;DHT22;32845;59.422;17.930;2023-09-08T07:05:39;16.90;99.90
44695;DHT22;32845;59.422;17.930;2023-09-08T07:10:10;17.00;99.90
44695;DHT22;32845;59.422;17.930;2023-09-08T07:14:40;17.10;99.90
44695;DHT22;32845;59.422;17.930;2023-09-08T07:19:11;17.20;99.90
44695;DHT22;32845;59.422;17.930;2023-09-08T07:23:41;17.20;99.90
44695;DHT22;32845;59.422;17.930;2023-09-08T07:28:12;17.30;99.90
44695;DHT22;32845;59.422;17.930;2023-09-08T07:32:43;17.30;99.90
44695;DHT22;32845;59.422;17.930;2023-09-08T07:37:14;17.40;99.90
44695;DHT22;32845;59.422;17.930;2023-09-08T07:41:45;17.50;99.90
44695;DHT22;32845;59.422;17.930;2023-09-08T07:46:15;17.50;99.90
44695;DHT22;32845;59.422;17.930;2023-09-08T07:50:46;17.50;99.90
44695;DHT22;32845;59.422;17.930;2023-09-08T07:55:17;17.60;99.90
44695;DHT22;32845;59.422;17.930;2023-09-08T07:59:48;17.60;99.90
44695;DHT22;32845;59.422;17.930;2023-09-08T08:04:18;17.60;99.90
44695;DHT22;32845;59.422;17.930;2023-09-08T08:08:49;17.70;99.90
44695;DHT22;32845;59.422;17.930;2023-09-08T08:13:19;17.70;99.90
44695;DHT22;32845;59.422;17.930;2023-09-08T08:17:50;17.80;99.90
44695;DHT22;32845;59.422;17.930;2023-09-08T08:22:21;17.90;99.90
44695;DHT22;32845;59.422;17.930;2023-09-08T08:26:52;17.90;99.90
44695;DHT22;32845;59.422;17.930;2023-09-08T08:31:22;17.90;99.90
44695;DHT22;32845;59.422;17.930;2023-09-08T08:35:54;18.10;99.90
44695;DHT22;32845;59.422;17.930;2023-09-08T08:40:25;18.20;99.90
44695;DHT22;32845;59.422;17.930;2023-09-08T08:44:58;18.40;99.90
44695;DHT22;32845;59.422;17.930;2023-09-08T08:49:31;18.50;99.90
44695;DHT22;32845;59.422;17.930;2023-09-08T08:54:02;18.60;99.90
44695;DHT22;32845;59.422;17.930;2023-09-08T08:58:40;18.70;99.90
44695;DHT22;32845;59.422;17.930;2023-09-08T09:03:11;18.80;99.90
44695;DHT22;32845;59.422;17.930;2023-09-08T09:07:43;19.00;99.90
44695;DHT22;32845;59.422;17.930;2023-09-08T09:12:13;19.10;99.90
44695;DHT22;32845;59.422;17.930;2023-09-08T09:16:44;19.20;99.90
44695;DHT22;32845;59.422;17.930;2023-09-08T09:21:15;19.30;99.90
44695;DHT22;32845;59.422;17.930;2023-09-08T09:25:45;19.40;99.90
44695;DHT22;32845;59.422;17.930;2023-09-08T09:30:16;19.50;99.90
44695;DHT22;32845;59.422;17.930;2023-09-08T09:34:51;19.60;99.90
44695;DHT22;32845;59.422;17.930;2023-09-08T09:39:24;19.80;99.90
44695;DHT22;32845;59.422;17.930;2023-09-08T09:43:56;19.90;99.90
44695;DHT22;32845;59.422;17.930;2023-09-08T09:48:27;19.90;99.90
44695;DHT22;32845;59.422;17.930;2023-09-08T09:52:59;20.10;99.90
44695;DHT22;32845;59.422;17.930;2023-09-08T09:57:33;20.20;99.90
44695;DHT22;32845;59.422;17.930;2023-09-08T10:02:08;20.30;99.90
44695;DHT22;32845;59.422;17.930;2023-09-08T10:06:42;20.40;99.90
44695;DHT22;32845;59.422;17.930;2023-09-08T10:11:16;20.50;99.90
44695;DHT22;32845;59.422;17.930;2023-09-08T10:15:48;20.70;99.90
44695;DHT22;32845;59.422;17.930;2023-09-08T10:20:25;20.80;99.90
44695;DHT22;32845;59.422;17.930;2023-09-08T10:24:57;21.00;99.90
44695;DHT22;32845;59.422;17.930;2023-09-08T10:29:32;21.20;99.90
44695;DHT22;32845;59.422;17.930;2023-09-08T10:34:04;21.30;99.90
44695;DHT22;32845;59.422;17.930;2023-09-08T10:38:35;21.50;99.90
44695;DHT22;32845;59.422;17.930;2023-09-08T10:43:07;21.50;99.90
44695;DHT22;32845;59.422;17.930;2023-09-08T10:52:21;21.90;99.90
44695;DHT22;32845;59.422;17.930;2023-09-08T10:56:56;22.10;99.90
44695;DHT22;32845;59.422;17.930;2023-09-08T11:01:27;22.30;99.90
44695;DHT22;32845;59.422;17.930;2023-09-08T11:05:59;22.60;99.90
44695;DHT22;32845;59.422;17.930;2023-09-08T11:10:30;22.80;99.90
44695;DHT22;32845;59.422;17.930;2023-09-08T11:15:03;23.30;99.90
44695;DHT22;32845;59.422;17.930;2023-09-08T11:19:49;23.80;99.90
44695;DHT22;32845;59.422;17.930;2023-09-08T11:24:20;24.30;99.90
44695;DHT22;32845;59.422;17.930;2023-09-08T11:28:51;25.00;99.90
44695;DHT22;32845;59.422;17.930;2023-09-08T11:33:23;25.50;99.90
44695;DHT22;32845;59.422;17.930;2023-09-08T11:37:59;25.40;99.90
44695;DHT22;32845;59.422;17.930;2023-09-08T11:42:31;25.50;99.90
44695;DHT22;32845;59.422;17.930;2023-09-08T11:47:03;25.70;99.90
44695;DHT22;32845;59.422;17.930;2023-09-08T11:51:33;25.90;99.90
44695;DHT22;32845;59.422;17.930;2023-09-08T11:56:05;26.00;99.90
44695;DHT22;32845;59.422;17.930;2023-09-08T12:00:35;25.80;99.90
44695;DHT22;32845;59.422;17.930;2023-09-08T12:05:12;25.40;99.90
44695;DHT22;32845;59.422;17.930;2023-09-08T12:09:44;25.20;99.90
44695;DHT22;32845;59.422;17.930;2023-09-08T12:14:15;25.20;99.90
44695;DHT22;32845;59.422;17.930;2023-09-08T12:18:46;25.00;99.90
44695;DHT22;32845;59.422;17.930;2023-09-08T12:23:22;24.90;99.90
44695;DHT22;32845;59.422;17.930;2023-09-08T12:27:52;25.10;99.90
44695;DHT22;32845;59.422;17.930;2023-09-08T12:32:26;25.10;99.90
44695;DHT22;32845;59.422;17.930;2023-09-08T12:36:56;24.90;99.90
44695;DHT22;32845;59.422;17.930;2023-09-08T12:41:27;24.80;99.90
44695;DHT22;32845;59.422;17.930;2023-09-08T12:45:58;24.60;99.90
44695;DHT22;32845;59.422;17.930;2023-09-08T12:50:29;24.40;99.90
44695;DHT22;32845;59.422;17.930;2023-09-08T12:55:00;24.20;99.90
44695;DHT22;32845;59.422;17.930;2023-09-08T12:59:31;23.90;99.90
44695;DHT22;32845;59.422;17.930;2023-09-08T13:04:01;23.80;99.90
44695;DHT22;32845;59.422;17.930;2023-09-08T13:08:32;23.80;99.90
44695;DHT22;32845;59.422;17.930;2023-09-08T13:13:03;23.70;99.90
44695;DHT22;32845;59.422;17.930;2023-09-08T13:17:34;23.70;99.90
44695;DHT22;32845;59.422;17.930;2023-09-08T13:22:05;23.70;99.90
44695;DHT22;32845;59.422;17.930;2023-09-08T13:26:36;23.70;99.90
44695;DHT22;32845;59.422;17.930;2023-09-08T13:31:06;23.60;99.90
44695;DHT22;32845;59.422;17.930;2023-09-08T13:35:37;23.50;99.90
44695;DHT22;32845;59.422;17.930;2023-09-08T13:40:09;23.30;99.90
44695;DHT22;32845;59.422;17.930;2023-09-08T13:44:40;23.20;99.90
44695;DHT22;32845;59.422;17.930;2023-09-08T13:49:10;23.10;99.90
44695;DHT22;32845;59.422;17.930;2023-09-08T13:53:41;23.00;99.90
44695;DHT22;32845;59.422;17.930;2023-09-08T13:58:12;22.90;99.90
44695;DHT22;32845;59.422;17.930;2023-09-08T14:02:45;22.80;99.90
44695;DHT22;32845;59.422;17.930;2023-09-08T14:07:16;22.80;99.90
44695;DHT22;32845;59.422;17.930;2023-09-08T14:11:48;22.80;99.90
44695;DHT22;32845;59.422;17.930;2023-09-08T14:16:19;22.80;99.90
44695;DHT22;32845;59.422;17.930;2023-09-08T14:20:50;22.80;99.90
44695;DHT22;32845;59.422;17.930;2023-09-08T14:25:20;22.70;99.90
44695;DHT22;32845;59.422;17.930;2023-09-08T14:29:51;22.70;99.90
44695;DHT22;32845;59.422;17.930;2023-09-08T14:34:22;22.70;99.90
44695;DHT22;32845;59.422;17.930;2023-09-08T14:38:53;22.60;99.90
44695;DHT22;32845;59.422;17.930;2023-09-08T14:43:25;22.60;99.90
44695;DHT22;32845;59.422;17.930;2023-09-08T14:47:56;22.60;99.90
44695;DHT22;32845;59.422;17.930;2023-09-08T14:52:27;22.50;99.90
44695;DHT22;32845;59.422;17.930;2023-09-08T14:56:57;22.50;99.90
44695;DHT22;32845;59.422;17.930;2023-09-08T15:01:28;22.50;99.90
44695;DHT22;32845;59.422;17.930;2023-09-08T15:05:59;22.50;99.90
44695;DHT22;32845;59.422;17.930;2023-09-08T15:10:29;22.50;99.90
44695;DHT22;32845;59.422;17.930;2023-09-08T15:15:00;22.50;99.90
44695;DHT22;32845;59.422;17.930;2023-09-08T15:19:30;22.50;99.90
44695;DHT22;32845;59.422;17.930;2023-09-08T15:24:01;22.50;99.90
44695;DHT22;32845;59.422;17.930;2023-09-08T15:28:32;22.50;99.90
44695;DHT22;32845;59.422;17.930;2023-09-08T15:33:04;22.40;99.90
44695;DHT22;32845;59.422;17.930;2023-09-08T15:37:36;22.30;99.90
44695;DHT22;32845;59.422;17.930;2023-09-08T15:42:07;22.20;99.90
44695;DHT22;32845;59.422;17.930;2023-09-08T15:46:37;22.10;99.90
44695;DHT22;32845;59.422;17.930;2023-09-08T15:51:08;22.00;99.90
44695;DHT22;32845;59.422;17.930;2023-09-08T15:55:43;21.90;99.90
44695;DHT22;32845;59.422;17.930;2023-09-08T16:00:14;21.90;99.90
44695;DHT22;32845;59.422;17.930;2023-09-08T16:04:44;21.70;99.90
44695;DHT22;32845;59.422;17.930;2023-09-08T16:09:15;21.70;99.90
44695;DHT22;32845;59.422;17.930;2023-09-08T16:13:45;21.60;99.90
44695;DHT22;32845;59.422;17.930;2023-09-08T16:18:16;21.50;99.90
44695;DHT22;32845;59.422;17.930;2023-09-08T16:22:50;21.50;99.90
44695;DHT22;32845;59.422;17.930;2023-09-08T16:27:21;21.40;99.90
44695;DHT22;32845;59.422;17.930;2023-09-08T16:31:51;21.40;99.90
44695;DHT22;32845;59.422;17.930;2023-09-08T16:36:22;21.30;99.90
44695;DHT22;32845;59.422;17.930;2023-09-08T16:40:52;21.30;99.90
44695;DHT22;32845;59.422;17.930;2023-09-08T16:45:23;21.30;99.90
44695;DHT22;32845;59.422;17.930;2023-09-08T16:49:54;21.20;99.90
44695;DHT22;32845;59.422;17.930;2023-09-08T16:54:24;21.10;99.90
44695;DHT22;32845;59.422;17.930;2023-09-08T16:58:55;21.00;99.90
44695;DHT22;32845;59.422;17.930;2023-09-08T17:03:25;20.90;99.90
44695;DHT22;32845;59.422;17.930;2023-09-08T17:07:56;20.80;99.90
44695;DHT22;32845;59.422;17.930;2023-09-08T17:12:27;20.70;99.90
44695;DHT22;32845;59.422;17.930;2023-09-08T17:16:57;20.60;99.90
44695;DHT22;32845;59.422;17.930;2023-09-08T17:21:28;20.50;99.90
44695;DHT22;32845;59.422;17.930;2023-09-08T17:25:58;20.40;99.90
44695;DHT22;32845;59.422;17.930;2023-09-08T17:30:30;20.30;99.90
44695;DHT22;32845;59.422;17.930;2023-09-08T17:35:01;20.20;99.90
44695;DHT22;32845;59.422;17.930;2023-09-08T17:39:31;20.10;99.90
44695;DHT22;32845;59.422;17.930;2023-09-08T17:44:02;20.00;99.90
44695;DHT22;32845;59.422;17.930;2023-09-08T17:48:32;19.90;99.90
44695;DHT22;32845;59.422;17.930;2023-09-08T17:53:03;19.80;99.90
44695;DHT22;32845;59.422;17.930;2023-09-08T17:57:34;19.80;99.90
44695;DHT22;32845;59.422;17.930;2023-09-08T18:02:10;19.70;99.90
44695;DHT22;32845;59.422;17.930;2023-09-08T18:06:41;19.70;99.90
44695;DHT22;32845;59.422;17.930;2023-09-08T18:11:11;19.60;99.90
44695;DHT22;32845;59.422;17.930;2023-09-08T18:15:43;19.60;99.90
44695;DHT22;32845;59.422;17.930;2023-09-08T18:20:14;19.60;99.90
44695;DHT22;32845;59.422;17.930;2023-09-08T18:24:44;19.60;99.90
44695;DHT22;32845;59.422;17.930;2023-09-08T18:29:15;19.60;99.90
44695;DHT22;32845;59.422;17.930;2023-09-08T18:33:46;19.60;99.90
44695;DHT22;32845;59.422;17.930;2023-09-08T18:38:16;19.50;99.90
44695;DHT22;32845;59.422;17.930;2023-09-08T18:42:47;19.50;99.90
44695;DHT22;32845;59.422;17.930;2023-09-08T18:47:17;19.50;99.90
44695;DHT22;32845;59.422;17.930;2023-09-08T18:51:49;19.40;99.90
44695;DHT22;32845;59.422;17.930;2023-09-08T18:56:19;19.30;99.90
44695;DHT22;32845;59.422;17.930;2023-09-08T19:00:50;19.30;99.90
44695;DHT22;32845;59.422;17.930;2023-09-08T19:05:21;19.20;99.90
44695;DHT22;32845;59.422;17.930;2023-09-08T19:09:51;19.10;99.90
44695;DHT22;32845;59.422;17.930;2023-09-08T19:14:22;19.00;99.90
44695;DHT22;32845;59.422;17.930;2023-09-08T19:18:56;18.90;99.90
44695;DHT22;32845;59.422;17.930;2023-09-08T19:23:26;18.80;99.90
44695;DHT22;32845;59.422;17.930;2023-09-08T19:27:57;18.80;99.90
44695;DHT22;32845;59.422;17.930;2023-09-08T19:32:28;18.70;99.90
44695;DHT22;32845;59.422;17.930;2023-09-08T19:36:59;18.70;99.90
44695;DHT22;32845;59.422;17.930;2023-09-08T19:41:29;18.60;99.90
44695;DHT22;32845;59.422;17.930;2023-09-08T19:46:01;18.60;99.90
44695;DHT22;32845;59.422;17.930;2023-09-08T19:50:32;18.50;99.90
44695;DHT22;32845;59.422;17.930;2023-09-08T19:55:03;18.50;99.90
44695;DHT22;32845;59.422;17.930;2023-09-08T19:59:35;18.50;99.90
44695;DHT22;32845;59.422;17.930;2023-09-08T20:04:06;18.50;99.90
44695;DHT22;32845;59.422;17.930;2023-09-08T20:08:36;18.50;99.90
44695;DHT22;32845;59.422;17.930;2023-09-08T20:13:07;18.50;99.90
44695;DHT22;32845;59.422;17.930;2023-09-08T20:17:37;18.50;99.90
44695;DHT22;32845;59.422;17.930;2023-09-08T20:22:09;18.50;99.90
44695;DHT22;32845;59.422;17.930;2023-09-08T20:26:39;18.50;99.90
44695;DHT22;32845;59.422;17.930;2023-09-08T20:31:10;18.50;99.90
44695;DHT22;32845;59.422;17.930;2023-09-08T20:35:41;18.50;99.90
44695;DHT22;32845;59.422;17.930;2023-09-08T20:40:11;18.50;99.90
44695;DHT22;32845;59.422;17.930;2023-09-08T20:44:42;18.50;99.90
44695;DHT22;32845;59.422;17.930;2023-09-08T20:49:13;18.50;99.90
44695;DHT22;32845;59.422;17.930;2023-09-08T20:53:43;18.50;99.90
44695;DHT22;32845;59.422;17.930;2023-09-08T20:58:14;18.40;99.90
44695;DHT22;32845;59.422;17.930;2023-09-08T21:02:45;18.40;99.90
44695;DHT22;32845;59.422;17.930;2023-09-08T21:07:16;18.30;99.90
44695;DHT22;32845;59.422;17.930;2023-09-08T21:11:47;18.20;99.90
44695;DHT22;32845;59.422;17.930;2023-09-08T21:16:18;18.10;99.90
44695;DHT22;32845;59.422;17.930;2023-09-08T21:20:49;18.00;99.90
44695;DHT22;32845;59.422;17.930;2023-09-08T21:25:19;18.00;99.90
44695;DHT22;32845;59.422;17.930;2023-09-08T21:29:53;17.90;99.90
44695;DHT22;32845;59.422;17.930;2023-09-08T21:34:24;17.80;99.90
44695;DHT22;32845;59.422;17.930;2023-09-08T21:38:55;17.70;99.90
44695;DHT22;32845;59.422;17.930;2023-09-08T21:43:26;17.60;99.90
44695;DHT22;32845;59.422;17.930;2023-09-08T21:47:56;17.50;99.90
44695;DHT22;32845;59.422;17.930;2023-09-08T21:52:27;17.40;99.90
44695;DHT22;32845;59.422;17.930;2023-09-08T21:56:57;17.40;99.90
44695;DHT22;32845;59.422;17.930;2023-09-08T22:01:28;17.30;99.90
44695;DHT22;32845;59.422;17.930;2023-09-08T22:05:59;17.30;99.90
44695;DHT22;32845;59.422;17.930;2023-09-08T22:10:29;17.30;99.90
44695;DHT22;32845;59.422;17.930;2023-09-08T22:15:00;17.20;99.90
44695;DHT22;32845;59.422;17.930;2023-09-08T22:19:31;17.20;99.90
44695;DHT22;32845;59.422;17.930;2023-09-08T22:24:01;17.20;99.90
44695;DHT22;32845;59.422;17.930;2023-09-08T22:28:32;17.20;99.90
44695;DHT22;32845;59.422;17.930;2023-09-08T22:33:03;17.20;99.90
44695;DHT22;32845;59.422;17.930;2023-09-08T22:37:34;17.20;99.90
44695;DHT22;32845;59.422;17.930;2023-09-08T22:42:05;17.10;99.90
44695;DHT22;32845;59.422;17.930;2023-09-08T22:46:35;17.10;99.90
44695;DHT22;32845;59.422;17.930;2023-09-08T22:51:06;17.00;99.90
44695;DHT22;32845;59.422;17.930;2023-09-08T22:55:37;17.00;99.90
44695;DHT22;32845;59.422;17.930;2023-09-08T23:00:08;16.90;99.90
44695;DHT22;32845;59.422;17.930;2023-09-08T23:04:40;16.80;99.90
44695;DHT22;32845;59.422;17.930;2023-09-08T23:09:11;16.70;99.90
44695;DHT22;32845;59.422;17.930;2023-09-08T23:13:42;16.70;99.90
44695;DHT22;32845;59.422;17.930;2023-09-08T23:18:13;16.70;99.90
44695;DHT22;32845;59.422;17.930;2023-09-08T23:22:44;16.60;99.90
44695;DHT22;32845;59.422;17.930;2023-09-08T23:27:14;16.50;99.90
44695;DHT22;32845;59.422;17.930;2023-09-08T23:31:45;16.50;99.90
44695;DHT22;32845;59.422;17.930;2023-09-08T23:36:16;16.40;99.90
44695;DHT22;32845;59.422;17.930;2023-09-08T23:40:46;16.40;99.90
44695;DHT22;32845;59.422;17.930;2023-09-08T23:45:17;16.30;99.90
44695;DHT22;32845;59.422;17.930;2023-09-08T23:49:48;16.30;99.90
44695;DHT22;32845;59.422;17.930;2023-09-08T23:54:20;16.30;99.90
44695;DHT22;32845;59.422;17.930;2023-09-08T23:58:50;16.30;99.90
